BTV weather

Burlington International Airport
Burlington, Vermont, United States

Public forecast

Using degrees Fahrenheit for public forecast. Weather courtesy of forecast.io.

Current aviation weather report (METAR) for Burlington International Airport

Retrieved 2020/03/30 06:54 UTC (34 minutes ago):

KBTV 300654Z AUTO 17007KT 10SM FEW085 04/02 A2990 RMK AO2 SLP128 T00390017

Aviation forecast (TAF) for Burlington International Airport

Retrieved 2020/03/30 06:22 UTC (1 hour ago):

TAF KBTV 300520Z 3006/3106 15010KT P6SM -SHRA SCT015 OVC035 FM300800 15008KT P6SM BKN050 FM301600 14009KT P6SM -SHRA OVC040 FM301800 15009KT P6SM -SHRA OVC025